sensor_id;sensor_type;location;lat;lon;timestamp;P1;durP1;ratioP1;P2;durP2;ratioP2
8596;SDS011;4336;49.310;8.646;2024-01-27T00:00:12;26.83;;;18.73;;
8596;SDS011;4336;49.310;8.646;2024-01-27T00:02:39;28.97;;;19.53;;
8596;SDS011;4336;49.310;8.646;2024-01-27T00:05:08;25.10;;;19.50;;
8596;SDS011;4336;49.310;8.646;2024-01-27T00:07:34;29.13;;;19.97;;
8596;SDS011;4336;49.310;8.646;2024-01-27T00:10:01;32.77;;;19.83;;
8596;SDS011;4336;49.310;8.646;2024-01-27T00:12:27;26.70;;;18.93;;
8596;SDS011;4336;49.310;8.646;2024-01-27T00:14:54;27.47;;;17.20;;
8596;SDS011;4336;49.310;8.646;2024-01-27T00:17:20;29.37;;;18.90;;
8596;SDS011;4336;49.310;8.646;2024-01-27T00:19:53;26.43;;;18.33;;
8596;SDS011;4336;49.310;8.646;2024-01-27T00:22:20;26.40;;;18.53;;
8596;SDS011;4336;49.310;8.646;2024-01-27T00:24:46;29.50;;;18.10;;
8596;SDS011;4336;49.310;8.646;2024-01-27T00:27:12;25.53;;;16.87;;
8596;SDS011;4336;49.310;8.646;2024-01-27T00:29:39;23.00;;;16.07;;
8596;SDS011;4336;49.310;8.646;2024-01-27T00:32:05;27.40;;;19.53;;
8596;SDS011;4336;49.310;8.646;2024-01-27T00:34:31;26.83;;;17.80;;
8596;SDS011;4336;49.310;8.646;2024-01-27T00:36:58;30.60;;;17.43;;
8596;SDS011;4336;49.310;8.646;2024-01-27T00:39:24;23.17;;;16.87;;
8596;SDS011;4336;49.310;8.646;2024-01-27T00:41:51;21.27;;;17.23;;
8596;SDS011;4336;49.310;8.646;2024-01-27T00:44:19;22.57;;;16.07;;
8596;SDS011;4336;49.310;8.646;2024-01-27T00:46:45;21.93;;;16.70;;
8596;SDS011;4336;49.310;8.646;2024-01-27T00:49:12;17.33;;;14.33;;
8596;SDS011;4336;49.310;8.646;2024-01-27T00:51:38;22.27;;;14.47;;
8596;SDS011;4336;49.310;8.646;2024-01-27T00:54:05;17.43;;;12.93;;
8596;SDS011;4336;49.310;8.646;2024-01-27T00:56:31;21.37;;;16.07;;
8596;SDS011;4336;49.310;8.646;2024-01-27T00:58:57;20.13;;;14.80;;
8596;SDS011;4336;49.310;8.646;2024-01-27T01:01:23;22.50;;;14.73;;
8596;SDS011;4336;49.310;8.646;2024-01-27T01:03:50;18.40;;;13.77;;
8596;SDS011;4336;49.310;8.646;2024-01-27T01:06:16;27.57;;;16.23;;
8596;SDS011;4336;49.310;8.646;2024-01-27T01:08:42;21.50;;;17.87;;
8596;SDS011;4336;49.310;8.646;2024-01-27T01:11:08;19.10;;;15.77;;
8596;SDS011;4336;49.310;8.646;2024-01-27T01:13:34;19.50;;;14.77;;
8596;SDS011;4336;49.310;8.646;2024-01-27T01:16:01;18.37;;;13.20;;
8596;SDS011;4336;49.310;8.646;2024-01-27T01:18:28;19.90;;;13.93;;
8596;SDS011;4336;49.310;8.646;2024-01-27T01:20:54;20.70;;;14.93;;
8596;SDS011;4336;49.310;8.646;2024-01-27T01:23:20;20.07;;;14.57;;
8596;SDS011;4336;49.310;8.646;2024-01-27T01:25:47;21.27;;;15.27;;
8596;SDS011;4336;49.310;8.646;2024-01-27T01:28:13;20.03;;;14.63;;
8596;SDS011;4336;49.310;8.646;2024-01-27T01:30:39;18.33;;;14.17;;
8596;SDS011;4336;49.310;8.646;2024-01-27T01:33:05;20.50;;;14.40;;
8596;SDS011;4336;49.310;8.646;2024-01-27T01:35:31;16.97;;;14.13;;
8596;SDS011;4336;49.310;8.646;2024-01-27T01:37:57;23.20;;;13.13;;
8596;SDS011;4336;49.310;8.646;2024-01-27T01:40:24;17.40;;;13.17;;
8596;SDS011;4336;49.310;8.646;2024-01-27T01:42:50;22.10;;;13.07;;
8596;SDS011;4336;49.310;8.646;2024-01-27T01:45:17;17.53;;;12.70;;
8596;SDS011;4336;49.310;8.646;2024-01-27T01:47:43;19.63;;;13.63;;
8596;SDS011;4336;49.310;8.646;2024-01-27T01:50:10;16.53;;;13.57;;
8596;SDS011;4336;49.310;8.646;2024-01-27T01:52:37;21.47;;;12.67;;
8596;SDS011;4336;49.310;8.646;2024-01-27T01:55:04;19.20;;;14.93;;
8596;SDS011;4336;49.310;8.646;2024-01-27T01:57:30;17.73;;;13.90;;
8596;SDS011;4336;49.310;8.646;2024-01-27T01:59:57;23.03;;;14.70;;
8596;SDS011;4336;49.310;8.646;2024-01-27T02:02:23;18.47;;;14.40;;
8596;SDS011;4336;49.310;8.646;2024-01-27T02:04:49;21.53;;;14.27;;
8596;SDS011;4336;49.310;8.646;2024-01-27T02:07:15;22.50;;;15.07;;
8596;SDS011;4336;49.310;8.646;2024-01-27T02:09:41;19.23;;;15.20;;
8596;SDS011;4336;49.310;8.646;2024-01-27T02:12:07;24.73;;;17.27;;
8596;SDS011;4336;49.310;8.646;2024-01-27T02:14:33;22.63;;;16.80;;
8596;SDS011;4336;49.310;8.646;2024-01-27T02:17:00;19.87;;;14.60;;
8596;SDS011;4336;49.310;8.646;2024-01-27T02:19:26;17.77;;;14.07;;
8596;SDS011;4336;49.310;8.646;2024-01-27T02:21:52;19.90;;;15.90;;
8596;SDS011;4336;49.310;8.646;2024-01-27T02:24:18;21.10;;;16.47;;
8596;SDS011;4336;49.310;8.646;2024-01-27T02:26:44;22.00;;;16.20;;
8596;SDS011;4336;49.310;8.646;2024-01-27T02:29:10;23.73;;;15.80;;
8596;SDS011;4336;49.310;8.646;2024-01-27T02:31:36;22.70;;;15.83;;
8596;SDS011;4336;49.310;8.646;2024-01-27T02:34:02;19.13;;;14.97;;
8596;SDS011;4336;49.310;8.646;2024-01-27T02:36:28;19.53;;;16.77;;
8596;SDS011;4336;49.310;8.646;2024-01-27T02:38:54;21.83;;;16.67;;
8596;SDS011;4336;49.310;8.646;2024-01-27T02:41:20;23.43;;;17.40;;
8596;SDS011;4336;49.310;8.646;2024-01-27T02:43:47;17.83;;;14.33;;
8596;SDS011;4336;49.310;8.646;2024-01-27T02:46:13;23.63;;;15.23;;
8596;SDS011;4336;49.310;8.646;2024-01-27T02:48:43;22.23;;;16.13;;
8596;SDS011;4336;49.310;8.646;2024-01-27T02:51:10;20.53;;;16.03;;
8596;SDS011;4336;49.310;8.646;2024-01-27T02:53:36;20.50;;;16.47;;
8596;SDS011;4336;49.310;8.646;2024-01-27T02:56:02;18.70;;;15.73;;
8596;SDS011;4336;49.310;8.646;2024-01-27T02:58:31;21.80;;;15.70;;
8596;SDS011;4336;49.310;8.646;2024-01-27T03:00:57;18.90;;;15.37;;
8596;SDS011;4336;49.310;8.646;2024-01-27T03:03:23;21.97;;;15.53;;
8596;SDS011;4336;49.310;8.646;2024-01-27T03:05:50;17.53;;;13.67;;
8596;SDS011;4336;49.310;8.646;2024-01-27T03:08:16;24.90;;;16.40;;
8596;SDS011;4336;49.310;8.646;2024-01-27T03:10:42;19.43;;;16.40;;
8596;SDS011;4336;49.310;8.646;2024-01-27T03:13:08;21.33;;;16.07;;
8596;SDS011;4336;49.310;8.646;2024-01-27T03:15:34;21.73;;;15.83;;
8596;SDS011;4336;49.310;8.646;2024-01-27T03:18:03;31.67;;;15.73;;
8596;SDS011;4336;49.310;8.646;2024-01-27T03:20:30;21.27;;;14.57;;
8596;SDS011;4336;49.310;8.646;2024-01-27T03:22:58;20.13;;;15.67;;
8596;SDS011;4336;49.310;8.646;2024-01-27T03:25:24;22.53;;;15.57;;
8596;SDS011;4336;49.310;8.646;2024-01-27T03:27:52;20.87;;;14.90;;
8596;SDS011;4336;49.310;8.646;2024-01-27T03:30:18;19.13;;;14.63;;
8596;SDS011;4336;49.310;8.646;2024-01-27T03:32:44;19.07;;;14.73;;
8596;SDS011;4336;49.310;8.646;2024-01-27T03:35:10;23.43;;;16.53;;
8596;SDS011;4336;49.310;8.646;2024-01-27T03:37:36;20.63;;;15.83;;
8596;SDS011;4336;49.310;8.646;2024-01-27T03:40:03;24.83;;;14.73;;
8596;SDS011;4336;49.310;8.646;2024-01-27T03:42:29;20.37;;;15.90;;
8596;SDS011;4336;49.310;8.646;2024-01-27T03:44:55;20.50;;;15.57;;
8596;SDS011;4336;49.310;8.646;2024-01-27T03:47:21;19.07;;;14.97;;
8596;SDS011;4336;49.310;8.646;2024-01-27T03:49:47;21.07;;;14.70;;
8596;SDS011;4336;49.310;8.646;2024-01-27T03:52:14;19.30;;;13.23;;
8596;SDS011;4336;49.310;8.646;2024-01-27T03:54:40;19.63;;;12.80;;
8596;SDS011;4336;49.310;8.646;2024-01-27T03:57:06;20.30;;;14.77;;
8596;SDS011;4336;49.310;8.646;2024-01-27T03:59:32;22.50;;;15.63;;
8596;SDS011;4336;49.310;8.646;2024-01-27T04:01:58;25.27;;;15.60;;
8596;SDS011;4336;49.310;8.646;2024-01-27T04:04:24;22.83;;;15.80;;
8596;SDS011;4336;49.310;8.646;2024-01-27T04:06:50;23.87;;;15.63;;
8596;SDS011;4336;49.310;8.646;2024-01-27T04:09:16;26.63;;;15.93;;
8596;SDS011;4336;49.310;8.646;2024-01-27T04:11:43;19.77;;;15.60;;
8596;SDS011;4336;49.310;8.646;2024-01-27T04:14:09;23.80;;;15.33;;
8596;SDS011;4336;49.310;8.646;2024-01-27T04:16:35;19.07;;;14.50;;
8596;SDS011;4336;49.310;8.646;2024-01-27T04:19:01;23.33;;;15.83;;
8596;SDS011;4336;49.310;8.646;2024-01-27T04:21:27;19.50;;;14.60;;
8596;SDS011;4336;49.310;8.646;2024-01-27T04:23:54;24.10;;;13.80;;
8596;SDS011;4336;49.310;8.646;2024-01-27T04:26:20;19.70;;;15.30;;
8596;SDS011;4336;49.310;8.646;2024-01-27T04:28:46;20.23;;;14.20;;
8596;SDS011;4336;49.310;8.646;2024-01-27T04:31:12;22.43;;;14.43;;
8596;SDS011;4336;49.310;8.646;2024-01-27T04:33:38;20.87;;;14.80;;
8596;SDS011;4336;49.310;8.646;2024-01-27T04:36:05;25.63;;;14.50;;
8596;SDS011;4336;49.310;8.646;2024-01-27T04:38:32;20.27;;;13.13;;
8596;SDS011;4336;49.310;8.646;2024-01-27T04:40:58;20.50;;;15.80;;
8596;SDS011;4336;49.310;8.646;2024-01-27T04:43:24;18.63;;;14.57;;
8596;SDS011;4336;49.310;8.646;2024-01-27T04:45:50;21.60;;;15.40;;
8596;SDS011;4336;49.310;8.646;2024-01-27T04:48:16;19.20;;;15.07;;
8596;SDS011;4336;49.310;8.646;2024-01-27T04:50:42;21.03;;;14.77;;
8596;SDS011;4336;49.310;8.646;2024-01-27T04:53:08;20.83;;;14.50;;
8596;SDS011;4336;49.310;8.646;2024-01-27T04:55:35;17.80;;;13.57;;
8596;SDS011;4336;49.310;8.646;2024-01-27T04:58:01;24.67;;;14.33;;
8596;SDS011;4336;49.310;8.646;2024-01-27T05:00:27;23.37;;;14.07;;
8596;SDS011;4336;49.310;8.646;2024-01-27T05:02:53;19.40;;;15.23;;
8596;SDS011;4336;49.310;8.646;2024-01-27T05:05:20;21.83;;;15.80;;
8596;SDS011;4336;49.310;8.646;2024-01-27T05:07:46;23.73;;;15.63;;
8596;SDS011;4336;49.310;8.646;2024-01-27T05:10:14;23.93;;;15.17;;
8596;SDS011;4336;49.310;8.646;2024-01-27T05:12:41;21.07;;;13.27;;
8596;SDS011;4336;49.310;8.646;2024-01-27T05:15:07;22.53;;;15.67;;
8596;SDS011;4336;49.310;8.646;2024-01-27T05:17:33;20.17;;;15.33;;
8596;SDS011;4336;49.310;8.646;2024-01-27T05:19:59;23.20;;;14.90;;
8596;SDS011;4336;49.310;8.646;2024-01-27T05:22:29;18.57;;;14.07;;
8596;SDS011;4336;49.310;8.646;2024-01-27T05:24:55;26.07;;;15.03;;
8596;SDS011;4336;49.310;8.646;2024-01-27T05:27:21;22.93;;;14.27;;
8596;SDS011;4336;49.310;8.646;2024-01-27T05:29:47;22.10;;;15.10;;
8596;SDS011;4336;49.310;8.646;2024-01-27T05:32:13;19.90;;;14.83;;
8596;SDS011;4336;49.310;8.646;2024-01-27T05:34:39;20.87;;;15.23;;
8596;SDS011;4336;49.310;8.646;2024-01-27T05:37:06;22.87;;;12.60;;
8596;SDS011;4336;49.310;8.646;2024-01-27T05:39:32;19.93;;;14.17;;
8596;SDS011;4336;49.310;8.646;2024-01-27T05:41:59;15.70;;;13.00;;
8596;SDS011;4336;49.310;8.646;2024-01-27T05:44:25;20.63;;;15.07;;
8596;SDS011;4336;49.310;8.646;2024-01-27T05:46:51;17.57;;;15.00;;
8596;SDS011;4336;49.310;8.646;2024-01-27T05:49:17;17.67;;;14.10;;
8596;SDS011;4336;49.310;8.646;2024-01-27T05:51:43;19.70;;;14.10;;
8596;SDS011;4336;49.310;8.646;2024-01-27T05:54:09;17.83;;;15.20;;
8596;SDS011;4336;49.310;8.646;2024-01-27T05:56:39;18.37;;;14.43;;
8596;SDS011;4336;49.310;8.646;2024-01-27T05:59:06;18.93;;;15.07;;
8596;SDS011;4336;49.310;8.646;2024-01-27T06:01:32;17.50;;;15.60;;
8596;SDS011;4336;49.310;8.646;2024-01-27T06:03:58;20.93;;;15.27;;
8596;SDS011;4336;49.310;8.646;2024-01-27T06:06:24;15.77;;;14.10;;
8596;SDS011;4336;49.310;8.646;2024-01-27T06:08:50;25.10;;;13.93;;
8596;SDS011;4336;49.310;8.646;2024-01-27T06:11:26;22.63;;;14.57;;
8596;SDS011;4336;49.310;8.646;2024-01-27T06:13:52;21.47;;;14.07;;
8596;SDS011;4336;49.310;8.646;2024-01-27T06:16:18;21.00;;;15.43;;
8596;SDS011;4336;49.310;8.646;2024-01-27T06:18:44;18.40;;;15.13;;
8596;SDS011;4336;49.310;8.646;2024-01-27T06:21:10;16.87;;;13.97;;
8596;SDS011;4336;49.310;8.646;2024-01-27T06:23:36;18.73;;;14.17;;
8596;SDS011;4336;49.310;8.646;2024-01-27T06:26:06;15.03;;;12.00;;
8596;SDS011;4336;49.310;8.646;2024-01-27T06:28:32;19.87;;;15.27;;
8596;SDS011;4336;49.310;8.646;2024-01-27T06:30:59;18.33;;;14.93;;
8596;SDS011;4336;49.310;8.646;2024-01-27T06:33:26;17.20;;;13.83;;
8596;SDS011;4336;49.310;8.646;2024-01-27T06:35:52;17.83;;;14.63;;
8596;SDS011;4336;49.310;8.646;2024-01-27T06:38:18;18.97;;;14.43;;
8596;SDS011;4336;49.310;8.646;2024-01-27T06:40:44;17.70;;;14.90;;
8596;SDS011;4336;49.310;8.646;2024-01-27T06:43:16;19.47;;;14.83;;
8596;SDS011;4336;49.310;8.646;2024-01-27T06:45:42;18.83;;;15.17;;
8596;SDS011;4336;49.310;8.646;2024-01-27T06:48:08;22.73;;;17.03;;
8596;SDS011;4336;49.310;8.646;2024-01-27T06:50:35;15.50;;;13.63;;
8596;SDS011;4336;49.310;8.646;2024-01-27T06:53:01;21.23;;;14.20;;
8596;SDS011;4336;49.310;8.646;2024-01-27T06:55:27;23.20;;;16.80;;
8596;SDS011;4336;49.310;8.646;2024-01-27T06:57:53;27.73;;;19.70;;
8596;SDS011;4336;49.310;8.646;2024-01-27T07:00:20;25.90;;;18.93;;
8596;SDS011;4336;49.310;8.646;2024-01-27T07:02:46;24.50;;;17.70;;
8596;SDS011;4336;49.310;8.646;2024-01-27T07:05:12;26.47;;;19.37;;
8596;SDS011;4336;49.310;8.646;2024-01-27T07:07:39;22.67;;;17.73;;
8596;SDS011;4336;49.310;8.646;2024-01-27T07:10:06;28.40;;;18.37;;
8596;SDS011;4336;49.310;8.646;2024-01-27T07:12:33;27.67;;;18.97;;
8596;SDS011;4336;49.310;8.646;2024-01-27T07:14:59;23.30;;;18.47;;
8596;SDS011;4336;49.310;8.646;2024-01-27T07:17:29;24.87;;;18.00;;
8596;SDS011;4336;49.310;8.646;2024-01-27T07:19:55;32.10;;;17.70;;
8596;SDS011;4336;49.310;8.646;2024-01-27T07:22:22;29.20;;;16.93;;
8596;SDS011;4336;49.310;8.646;2024-01-27T07:24:49;25.13;;;15.77;;
8596;SDS011;4336;49.310;8.646;2024-01-27T07:27:18;21.43;;;14.27;;
8596;SDS011;4336;49.310;8.646;2024-01-27T07:29:44;24.37;;;16.50;;
8596;SDS011;4336;49.310;8.646;2024-01-27T07:32:10;29.50;;;15.73;;
8596;SDS011;4336;49.310;8.646;2024-01-27T07:34:42;21.73;;;17.23;;
8596;SDS011;4336;49.310;8.646;2024-01-27T07:37:08;25.07;;;16.70;;
8596;SDS011;4336;49.310;8.646;2024-01-27T07:39:35;23.60;;;15.33;;
8596;SDS011;4336;49.310;8.646;2024-01-27T07:42:01;21.00;;;15.00;;
8596;SDS011;4336;49.310;8.646;2024-01-27T07:44:27;23.43;;;15.87;;
8596;SDS011;4336;49.310;8.646;2024-01-27T07:46:53;23.00;;;15.83;;
8596;SDS011;4336;49.310;8.646;2024-01-27T07:49:19;22.07;;;14.73;;
8596;SDS011;4336;49.310;8.646;2024-01-27T07:51:45;21.17;;;15.23;;
8596;SDS011;4336;49.310;8.646;2024-01-27T07:54:11;21.30;;;16.43;;
8596;SDS011;4336;49.310;8.646;2024-01-27T07:56:37;20.00;;;15.40;;
8596;SDS011;4336;49.310;8.646;2024-01-27T07:59:04;24.13;;;15.40;;
8596;SDS011;4336;49.310;8.646;2024-01-27T08:01:30;23.10;;;17.00;;
8596;SDS011;4336;49.310;8.646;2024-01-27T08:03:56;19.27;;;15.57;;
8596;SDS011;4336;49.310;8.646;2024-01-27T08:06:27;22.17;;;16.07;;
8596;SDS011;4336;49.310;8.646;2024-01-27T08:08:54;22.40;;;16.43;;
8596;SDS011;4336;49.310;8.646;2024-01-27T08:11:20;26.00;;;16.47;;
8596;SDS011;4336;49.310;8.646;2024-01-27T08:13:47;22.47;;;15.53;;
8596;SDS011;4336;49.310;8.646;2024-01-27T08:16:13;20.83;;;16.10;;
8596;SDS011;4336;49.310;8.646;2024-01-27T08:18:40;22.50;;;17.17;;
8596;SDS011;4336;49.310;8.646;2024-01-27T08:21:07;19.47;;;15.83;;
8596;SDS011;4336;49.310;8.646;2024-01-27T08:23:34;21.03;;;15.33;;
8596;SDS011;4336;49.310;8.646;2024-01-27T08:26:00;21.80;;;16.60;;
8596;SDS011;4336;49.310;8.646;2024-01-27T08:28:26;25.23;;;17.17;;
8596;SDS011;4336;49.310;8.646;2024-01-27T08:30:53;18.30;;;13.80;;
8596;SDS011;4336;49.310;8.646;2024-01-27T08:33:19;18.30;;;14.37;;
8596;SDS011;4336;49.310;8.646;2024-01-27T08:35:48;19.03;;;14.20;;
8596;SDS011;4336;49.310;8.646;2024-01-27T08:38:14;18.33;;;13.70;;
8596;SDS011;4336;49.310;8.646;2024-01-27T08:40:40;19.23;;;13.97;;
8596;SDS011;4336;49.310;8.646;2024-01-27T08:43:07;15.77;;;11.90;;
8596;SDS011;4336;49.310;8.646;2024-01-27T08:45:33;15.33;;;11.67;;
8596;SDS011;4336;49.310;8.646;2024-01-27T08:47:59;14.60;;;11.13;;
8596;SDS011;4336;49.310;8.646;2024-01-27T08:50:25;14.83;;;11.73;;
8596;SDS011;4336;49.310;8.646;2024-01-27T08:52:51;13.63;;;10.73;;
8596;SDS011;4336;49.310;8.646;2024-01-27T08:55:17;12.97;;;10.33;;
8596;SDS011;4336;49.310;8.646;2024-01-27T08:57:45;15.37;;;11.20;;
8596;SDS011;4336;49.310;8.646;2024-01-27T09:00:12;13.97;;;10.27;;
8596;SDS011;4336;49.310;8.646;2024-01-27T09:02:38;15.27;;;12.13;;
8596;SDS011;4336;49.310;8.646;2024-01-27T09:05:05;15.83;;;10.73;;
8596;SDS011;4336;49.310;8.646;2024-01-27T09:07:31;11.40;;;10.20;;
8596;SDS011;4336;49.310;8.646;2024-01-27T09:09:57;20.53;;;15.10;;
8596;SDS011;4336;49.310;8.646;2024-01-27T09:12:24;14.63;;;12.70;;
8596;SDS011;4336;49.310;8.646;2024-01-27T09:14:50;14.40;;;12.50;;
8596;SDS011;4336;49.310;8.646;2024-01-27T09:17:16;14.50;;;10.90;;
8596;SDS011;4336;49.310;8.646;2024-01-27T09:19:42;17.50;;;10.77;;
8596;SDS011;4336;49.310;8.646;2024-01-27T09:22:08;17.70;;;11.70;;
8596;SDS011;4336;49.310;8.646;2024-01-27T09:24:34;15.00;;;12.27;;
8596;SDS011;4336;49.310;8.646;2024-01-27T09:27:00;15.87;;;11.33;;
8596;SDS011;4336;49.310;8.646;2024-01-27T09:29:28;15.03;;;10.80;;
8596;SDS011;4336;49.310;8.646;2024-01-27T09:31:54;16.40;;;10.60;;
8596;SDS011;4336;49.310;8.646;2024-01-27T09:34:21;14.40;;;9.40;;
8596;SDS011;4336;49.310;8.646;2024-01-27T09:36:47;14.73;;;10.50;;
8596;SDS011;4336;49.310;8.646;2024-01-27T09:39:13;14.80;;;11.10;;
8596;SDS011;4336;49.310;8.646;2024-01-27T09:41:39;16.63;;;10.80;;
8596;SDS011;4336;49.310;8.646;2024-01-27T09:44:06;15.43;;;10.33;;
8596;SDS011;4336;49.310;8.646;2024-01-27T09:46:35;11.87;;;10.50;;
8596;SDS011;4336;49.310;8.646;2024-01-27T09:49:01;12.40;;;10.40;;
8596;SDS011;4336;49.310;8.646;2024-01-27T09:51:28;14.33;;;11.13;;
8596;SDS011;4336;49.310;8.646;2024-01-27T09:53:54;16.47;;;10.87;;
8596;SDS011;4336;49.310;8.646;2024-01-27T09:56:22;11.20;;;9.90;;
8596;SDS011;4336;49.310;8.646;2024-01-27T09:58:49;15.27;;;10.63;;
8596;SDS011;4336;49.310;8.646;2024-01-27T10:01:16;14.60;;;10.77;;
8596;SDS011;4336;49.310;8.646;2024-01-27T10:03:46;16.27;;;10.63;;
8596;SDS011;4336;49.310;8.646;2024-01-27T10:06:12;15.70;;;10.43;;
8596;SDS011;4336;49.310;8.646;2024-01-27T10:08:42;14.50;;;11.53;;
8596;SDS011;4336;49.310;8.646;2024-01-27T10:11:14;16.10;;;11.40;;
8596;SDS011;4336;49.310;8.646;2024-01-27T10:13:40;13.50;;;11.43;;
8596;SDS011;4336;49.310;8.646;2024-01-27T10:16:07;13.13;;;10.80;;
8596;SDS011;4336;49.310;8.646;2024-01-27T10:18:34;13.57;;;10.63;;
8596;SDS011;4336;49.310;8.646;2024-01-27T10:21:05;17.47;;;10.20;;
8596;SDS011;4336;49.310;8.646;2024-01-27T10:23:41;15.53;;;10.80;;
8596;SDS011;4336;49.310;8.646;2024-01-27T10:26:10;13.37;;;10.43;;
8596;SDS011;4336;49.310;8.646;2024-01-27T10:28:36;13.67;;;10.73;;
8596;SDS011;4336;49.310;8.646;2024-01-27T10:31:09;15.83;;;10.90;;
8596;SDS011;4336;49.310;8.646;2024-01-27T10:33:35;16.73;;;11.17;;
8596;SDS011;4336;49.310;8.646;2024-01-27T10:36:01;13.83;;;10.50;;
8596;SDS011;4336;49.310;8.646;2024-01-27T10:38:35;15.40;;;10.63;;
8596;SDS011;4336;49.310;8.646;2024-01-27T10:41:01;17.77;;;11.03;;
8596;SDS011;4336;49.310;8.646;2024-01-27T10:43:30;18.43;;;10.47;;
8596;SDS011;4336;49.310;8.646;2024-01-27T10:45:57;16.27;;;10.47;;
8596;SDS011;4336;49.310;8.646;2024-01-27T10:48:24;13.13;;;10.03;;
8596;SDS011;4336;49.310;8.646;2024-01-27T10:50:51;15.07;;;10.60;;
8596;SDS011;4336;49.310;8.646;2024-01-27T10:53:21;18.10;;;9.00;;
8596;SDS011;4336;49.310;8.646;2024-01-27T10:55:50;14.53;;;10.57;;
8596;SDS011;4336;49.310;8.646;2024-01-27T10:58:16;15.97;;;10.87;;
8596;SDS011;4336;49.310;8.646;2024-01-27T11:00:43;12.73;;;10.23;;
8596;SDS011;4336;49.310;8.646;2024-01-27T11:03:11;15.30;;;10.40;;
8596;SDS011;4336;49.310;8.646;2024-01-27T11:05:37;14.57;;;11.40;;
8596;SDS011;4336;49.310;8.646;2024-01-27T11:08:05;23.47;;;10.93;;
8596;SDS011;4336;49.310;8.646;2024-01-27T11:10:32;22.30;;;15.50;;
8596;SDS011;4336;49.310;8.646;2024-01-27T11:13:04;24.33;;;13.60;;
8596;SDS011;4336;49.310;8.646;2024-01-27T11:15:30;18.50;;;11.07;;
8596;SDS011;4336;49.310;8.646;2024-01-27T11:17:57;13.63;;;10.47;;
8596;SDS011;4336;49.310;8.646;2024-01-27T11:20:25;16.23;;;10.53;;
8596;SDS011;4336;49.310;8.646;2024-01-27T11:22:51;24.07;;;10.20;;
8596;SDS011;4336;49.310;8.646;2024-01-27T11:25:19;13.03;;;9.57;;
8596;SDS011;4336;49.310;8.646;2024-01-27T11:27:45;21.87;;;10.63;;
8596;SDS011;4336;49.310;8.646;2024-01-27T11:30:30;16.37;;;11.00;;
8596;SDS011;4336;49.310;8.646;2024-01-27T11:33:01;14.13;;;10.20;;
8596;SDS011;4336;49.310;8.646;2024-01-27T11:35:28;13.73;;;10.33;;
8596;SDS011;4336;49.310;8.646;2024-01-27T11:37:54;26.47;;;11.03;;
8596;SDS011;4336;49.310;8.646;2024-01-27T11:40:21;12.63;;;9.17;;
8596;SDS011;4336;49.310;8.646;2024-01-27T11:42:54;16.70;;;9.73;;
8596;SDS011;4336;49.310;8.646;2024-01-27T11:45:20;13.87;;;9.83;;
8596;SDS011;4336;49.310;8.646;2024-01-27T11:47:47;16.30;;;10.80;;
8596;SDS011;4336;49.310;8.646;2024-01-27T11:50:13;13.30;;;10.97;;
8596;SDS011;4336;49.310;8.646;2024-01-27T11:52:39;16.23;;;10.33;;
8596;SDS011;4336;49.310;8.646;2024-01-27T11:55:05;13.20;;;10.80;;
8596;SDS011;4336;49.310;8.646;2024-01-27T11:57:33;20.37;;;9.23;;
8596;SDS011;4336;49.310;8.646;2024-01-27T11:59:59;15.87;;;10.23;;
8596;SDS011;4336;49.310;8.646;2024-01-27T12:02:25;14.37;;;10.67;;
8596;SDS011;4336;49.310;8.646;2024-01-27T12:04:51;16.80;;;10.93;;
8596;SDS011;4336;49.310;8.646;2024-01-27T12:07:18;15.00;;;8.63;;
8596;SDS011;4336;49.310;8.646;2024-01-27T12:09:44;12.93;;;10.00;;
8596;SDS011;4336;49.310;8.646;2024-01-27T12:12:10;14.93;;;9.83;;
8596;SDS011;4336;49.310;8.646;2024-01-27T12:14:47;18.40;;;10.57;;
8596;SDS011;4336;49.310;8.646;2024-01-27T12:17:14;10.50;;;8.00;;
8596;SDS011;4336;49.310;8.646;2024-01-27T12:19:50;16.70;;;10.13;;
8596;SDS011;4336;49.310;8.646;2024-01-27T12:24:53;21.27;;;11.07;;
8596;SDS011;4336;49.310;8.646;2024-01-27T12:27:21;12.87;;;9.53;;
8596;SDS011;4336;49.310;8.646;2024-01-27T12:29:48;17.83;;;9.67;;
8596;SDS011;4336;49.310;8.646;2024-01-27T12:32:17;16.20;;;10.33;;
8596;SDS011;4336;49.310;8.646;2024-01-27T12:34:44;14.07;;;8.80;;
8596;SDS011;4336;49.310;8.646;2024-01-27T12:37:13;17.03;;;9.67;;
8596;SDS011;4336;49.310;8.646;2024-01-27T12:39:43;16.93;;;8.23;;
8596;SDS011;4336;49.310;8.646;2024-01-27T12:42:10;12.43;;;8.90;;
8596;SDS011;4336;49.310;8.646;2024-01-27T12:44:36;18.83;;;10.00;;
8596;SDS011;4336;49.310;8.646;2024-01-27T12:47:02;15.57;;;9.73;;
8596;SDS011;4336;49.310;8.646;2024-01-27T12:49:29;16.63;;;8.97;;
8596;SDS011;4336;49.310;8.646;2024-01-27T12:51:55;21.20;;;9.67;;
8596;SDS011;4336;49.310;8.646;2024-01-27T12:54:21;13.53;;;9.63;;
8596;SDS011;4336;49.310;8.646;2024-01-27T12:56:48;14.20;;;9.70;;
8596;SDS011;4336;49.310;8.646;2024-01-27T12:59:14;15.57;;;10.70;;
8596;SDS011;4336;49.310;8.646;2024-01-27T13:01:40;17.00;;;9.80;;
8596;SDS011;4336;49.310;8.646;2024-01-27T13:04:06;16.97;;;10.07;;
8596;SDS011;4336;49.310;8.646;2024-01-27T13:06:33;16.57;;;9.10;;
8596;SDS011;4336;49.310;8.646;2024-01-27T13:08:59;17.33;;;10.00;;
8596;SDS011;4336;49.310;8.646;2024-01-27T13:11:25;16.50;;;10.40;;
8596;SDS011;4336;49.310;8.646;2024-01-27T13:13:51;16.13;;;10.67;;
8596;SDS011;4336;49.310;8.646;2024-01-27T13:16:17;14.83;;;9.77;;
8596;SDS011;4336;49.310;8.646;2024-01-27T13:18:44;16.40;;;10.57;;
8596;SDS011;4336;49.310;8.646;2024-01-27T13:21:11;18.27;;;10.40;;
8596;SDS011;4336;49.310;8.646;2024-01-27T13:23:37;20.97;;;10.57;;
8596;SDS011;4336;49.310;8.646;2024-01-27T13:26:03;19.03;;;10.90;;
8596;SDS011;4336;49.310;8.646;2024-01-27T13:28:32;18.03;;;10.10;;
8596;SDS011;4336;49.310;8.646;2024-01-27T13:30:58;19.33;;;9.90;;
8596;SDS011;4336;49.310;8.646;2024-01-27T13:33:25;13.77;;;8.83;;
8596;SDS011;4336;49.310;8.646;2024-01-27T13:35:53;14.87;;;10.07;;
8596;SDS011;4336;49.310;8.646;2024-01-27T13:38:20;14.70;;;9.57;;
8596;SDS011;4336;49.310;8.646;2024-01-27T13:40:51;14.00;;;9.00;;
8596;SDS011;4336;49.310;8.646;2024-01-27T13:43:17;11.97;;;8.87;;
8596;SDS011;4336;49.310;8.646;2024-01-27T13:45:44;15.23;;;8.37;;
8596;SDS011;4336;49.310;8.646;2024-01-27T13:48:12;14.70;;;10.43;;
8596;SDS011;4336;49.310;8.646;2024-01-27T13:50:38;15.37;;;10.83;;
8596;SDS011;4336;49.310;8.646;2024-01-27T13:53:04;11.87;;;9.57;;
8596;SDS011;4336;49.310;8.646;2024-01-27T13:55:31;17.77;;;11.90;;
8596;SDS011;4336;49.310;8.646;2024-01-27T13:57:57;17.23;;;10.80;;
8596;SDS011;4336;49.310;8.646;2024-01-27T14:00:23;12.43;;;8.83;;
8596;SDS011;4336;49.310;8.646;2024-01-27T14:02:49;16.47;;;10.30;;
8596;SDS011;4336;49.310;8.646;2024-01-27T14:05:16;9.90;;;8.97;;
8596;SDS011;4336;49.310;8.646;2024-01-27T14:07:42;13.67;;;8.17;;
8596;SDS011;4336;49.310;8.646;2024-01-27T14:10:08;11.63;;;10.27;;
8596;SDS011;4336;49.310;8.646;2024-01-27T14:12:34;13.63;;;9.80;;
8596;SDS011;4336;49.310;8.646;2024-01-27T14:15:04;13.17;;;8.73;;
8596;SDS011;4336;49.310;8.646;2024-01-27T14:17:32;11.83;;;8.70;;
8596;SDS011;4336;49.310;8.646;2024-01-27T14:19:59;14.50;;;10.13;;
8596;SDS011;4336;49.310;8.646;2024-01-27T14:22:26;14.40;;;9.10;;
8596;SDS011;4336;49.310;8.646;2024-01-27T14:24:52;11.97;;;10.03;;
8596;SDS011;4336;49.310;8.646;2024-01-27T14:27:18;14.30;;;10.13;;
8596;SDS011;4336;49.310;8.646;2024-01-27T14:29:54;10.67;;;9.47;;
8596;SDS011;4336;49.310;8.646;2024-01-27T14:32:20;11.13;;;8.57;;
8596;SDS011;4336;49.310;8.646;2024-01-27T14:34:47;12.90;;;9.93;;
8596;SDS011;4336;49.310;8.646;2024-01-27T14:37:13;13.03;;;9.83;;
8596;SDS011;4336;49.310;8.646;2024-01-27T14:39:44;10.10;;;8.20;;
8596;SDS011;4336;49.310;8.646;2024-01-27T14:42:15;14.40;;;9.83;;
8596;SDS011;4336;49.310;8.646;2024-01-27T14:44:44;14.87;;;10.47;;
8596;SDS011;4336;49.310;8.646;2024-01-27T14:47:10;12.23;;;10.20;;
8596;SDS011;4336;49.310;8.646;2024-01-27T14:49:37;14.57;;;9.93;;